Pagrindinis puslapis
METAR-TAF:

METAR-TAF

Oro uostai :

Abu Dabis, Jungtiniai Arabų Emyratai

platuma: 24-26N, ilguma: 054-39E, Aukštis: 16 m

Dabartinis oras

Ataskaita buvo paskelbta 1 valandą ir 0 minutes, ne 13:00 UTC
Vėjas 12 kt iš Šiaurės Vakarų
Temperatūra 33°C
Drėgmė 21%
Slėgis 1004 hPa
Matomumas 10 km arba daugiau
nėra debesų žemiau 1500 m ir nėra kamuolinių lietaus debesų

METAR: OMAA 251300Z 32012KT CAVOK 33/08 Q1004 NOSIG

Laikas: 18:00 (14:00 UTC)

Prognozė

Ataskaita buvo paskelbta 3 valandos ir 0 minutes, ne 11:00 UTC
Prognozė galioja nuo 25 metu 12 UTC su 26 metu 18 UTC
Vėjas 12 kt iš Šiaurės Vakarų
Matomumas: 8000 m
Tapsmas
nuo 25 metu 16 UTC su 25 metu 18 UTC
Vėjas 7 kt iš Šiaurės/Šiaurės Rytų
Tikimybė 30%
nuo 26 metu 00 UTC su 26 metu 04 UTC
Matomumas: 4000 m
migla
Tapsmas
nuo 26 metu 08 UTC su 26 metu 10 UTC
Vėjas 12 kt iš Šiaurės Vakarų

TAF: OMAA 251100Z 2512/2618 32012KT 8000 NSC BECMG 2516/2518 02007KT PROB30 2600/2604 4000 HZ BECMG 2608/2610 32012KT

Orai ataskaitas ir orų prognozės (METAR, TAF).

turimą stotys yra geltonos ir raudonos taškus žemėlapyje.

Perkelti pele per norėdami pamatyti stoties vardą.

Tada spustelėkite, norėdami matyti oro stebėjimo ir prognozės.

Norėdami pakeisti žemėlapį: spustelėkite ant žalios mygtukų su juodo kryžiaus žemyn,; žalią mygtuką su brūkšneliu, jei norite nutolinti; arba žalių rodyklių gretimoms žemėlapius.


METAR-TAF: